createdAt,value
2018-01-05T00:00:31.004Z,23.97
2018-01-05T00:03:00.942Z,27.47
2018-01-05T00:05:30.836Z,21.93
2018-01-05T00:08:00.813Z,17.80
2018-01-05T00:10:31.213Z,20.53
2018-01-05T00:13:01.119Z,14.70
2018-01-05T00:15:31.023Z,19.97
2018-01-05T00:18:01.902Z,10.43
2018-01-05T00:20:31.906Z,7.10
2018-01-05T00:23:01.770Z,12.20
2018-01-05T00:25:31.662Z,14.37
2018-01-05T00:28:01.539Z,12.10
2018-01-05T00:30:31.456Z,18.40
2018-01-05T00:33:01.336Z,17.57
2018-01-05T00:35:31.267Z,25.37
2018-01-05T00:38:01.180Z,13.40
2018-01-05T00:40:31.109Z,10.87
2018-01-05T00:43:00.981Z,8.87
2018-01-05T00:45:30.881Z,16.27
2018-01-05T00:50:52.318Z,7.80
2018-01-05T00:53:23.231Z,14.93
2018-01-05T00:56:00.487Z,12.93
2018-01-05T01:04:32.237Z,12.20
2018-01-05T01:07:03.446Z,9.53
2018-01-05T01:26:15.499Z,10.37
2018-01-05T01:28:45.521Z,10.67
2018-01-05T01:34:17.185Z,5.93
2018-01-05T01:37:29.239Z,3.63
2018-01-05T02:29:36.112Z,4.00
2018-01-05T02:32:08.091Z,6.33
2018-01-05T02:34:44.759Z,7.67
2018-01-05T02:46:30.515Z,13.20
2018-01-05T02:49:00.422Z,11.17
2018-01-05T02:51:37.170Z,12.80
2018-01-05T02:57:21.021Z,10.57
2018-01-05T02:59:55.346Z,9.53
2018-01-05T03:10:01.870Z,3.53
2018-01-05T03:18:34.972Z,7.13
2018-01-05T03:24:12.996Z,5.50
2018-01-05T03:48:15.129Z,9.43
2018-01-05T03:54:01.974Z,7.90
2018-01-05T03:56:31.900Z,13.17
2018-01-05T03:59:02.166Z,7.67
2018-01-05T04:10:28.486Z,4.53
2018-01-05T04:13:08.937Z,3.43
2018-01-05T04:15:40.894Z,7.80
2018-01-05T04:21:35.471Z,3.90
2018-01-05T04:24:05.447Z,4.40
2018-01-05T04:36:01.732Z,4.20
2018-01-05T04:38:31.559Z,4.50
2018-01-05T04:47:11.524Z,8.63
2018-01-05T04:58:34.419Z,6.27
2018-01-05T05:18:55.963Z,4.77
2018-01-05T06:02:44.890Z,9.37
2018-01-05T06:08:41.072Z,8.17
2018-01-05T06:14:10.891Z,3.50
2018-01-05T06:16:40.911Z,5.53
2018-01-05T06:19:10.841Z,6.60
2018-01-05T06:21:40.832Z,7.10
2018-01-05T06:24:10.781Z,3.30
2018-01-05T06:54:21.698Z,20.33
2018-01-05T06:56:51.640Z,9.77
2018-01-05T06:59:21.534Z,10.17
2018-01-05T07:01:51.379Z,6.33
2018-01-05T07:04:21.244Z,11.17
2018-01-05T07:06:51.573Z,4.50
2018-01-05T07:09:21.524Z,10.10
2018-01-05T07:11:51.409Z,10.97
2018-01-05T07:17:25.928Z,7.90
2018-01-05T07:20:01.186Z,7.27
2018-01-05T07:22:50.938Z,12.93
2018-01-05T07:38:26.591Z,9.50
2018-01-05T07:40:58.132Z,12.43
2018-01-05T07:43:55.531Z,10.33
2018-01-05T07:51:12.500Z,9.07
2018-01-05T07:53:42.389Z,9.27
2018-01-05T07:56:12.338Z,16.03
2018-01-05T07:58:42.221Z,11.03
2018-01-05T08:01:12.181Z,8.27
2018-01-05T08:03:42.057Z,10.67
2018-01-05T08:06:11.982Z,6.37
2018-01-05T08:08:41.826Z,5.27
2018-01-05T08:11:11.704Z,5.90
2018-01-05T08:13:41.716Z,7.87
2018-01-05T08:16:11.598Z,8.00
2018-01-05T08:18:41.461Z,12.80
2018-01-05T08:21:11.351Z,7.00
2018-01-05T08:23:41.233Z,7.23
2018-01-05T08:26:11.088Z,10.07
2018-01-05T08:28:40.982Z,8.33
2018-01-05T08:31:11.015Z,5.77
2018-01-05T08:33:40.941Z,10.60
2018-01-05T08:36:10.800Z,10.07
2018-01-05T08:38:40.708Z,8.53
2018-01-05T08:41:10.584Z,17.27
2018-01-05T08:43:40.484Z,13.33
2018-01-05T08:46:10.365Z,9.97
2018-01-05T08:48:40.318Z,9.70
2018-01-05T08:51:10.239Z,10.93
2018-01-05T08:53:40.149Z,14.23
2018-01-05T08:56:10.111Z,10.60
2018-01-05T08:58:40.026Z,17.23
2018-01-05T09:01:09.906Z,12.53
2018-01-05T09:03:39.835Z,12.13
2018-01-05T09:06:09.718Z,9.97
2018-01-05T09:08:39.657Z,9.00
2018-01-05T09:11:09.542Z,11.50
2018-01-05T09:13:39.524Z,15.17
2018-01-05T09:16:09.403Z,8.70
2018-01-05T09:18:39.338Z,11.53
2018-01-05T09:21:09.291Z,6.70
2018-01-05T09:23:39.227Z,8.47
2018-01-05T09:26:09.117Z,11.67
2018-01-05T09:28:39.039Z,8.00
2018-01-05T09:31:08.926Z,13.97
2018-01-05T09:33:38.891Z,6.53
2018-01-05T09:36:08.766Z,23.17
2018-01-05T09:38:38.655Z,14.80
2018-01-05T09:41:08.535Z,8.97
2018-01-05T09:43:38.424Z,10.80
2018-01-05T09:46:08.392Z,9.63
2018-01-05T09:48:38.285Z,5.10
2018-01-05T09:51:08.202Z,9.60
2018-01-05T09:53:38.062Z,7.00
2018-01-05T09:56:07.943Z,11.97
2018-01-05T09:58:37.775Z,6.10
2018-01-05T10:01:07.951Z,7.23
2018-01-05T10:03:37.782Z,7.67
2018-01-05T10:06:07.752Z,3.50
2018-01-05T10:08:37.614Z,5.43
2018-01-05T10:11:07.477Z,8.60
2018-01-05T10:13:37.445Z,6.90
2018-01-05T10:16:07.297Z,7.70
2018-01-05T10:18:37.171Z,6.60
2018-01-05T10:21:07.021Z,8.33
2018-01-05T10:23:36.935Z,21.03
2018-01-05T10:29:12.547Z,7.47
2018-01-05T10:31:42.435Z,7.03
2018-01-05T10:34:12.305Z,4.33
2018-01-05T10:36:42.158Z,7.80
2018-01-05T10:39:12.148Z,4.33
2018-01-05T10:41:42.015Z,10.87
2018-01-05T10:44:11.894Z,6.47
2018-01-05T10:46:41.971Z,6.20
2018-01-05T10:49:11.837Z,10.27
2018-01-05T10:51:41.818Z,11.30
2018-01-05T10:54:11.773Z,10.73
2018-01-05T10:56:41.600Z,4.50
2018-01-05T10:59:11.501Z,5.60
2018-01-05T11:01:41.388Z,4.70
2018-01-05T11:04:11.234Z,4.03
2018-01-05T11:06:41.098Z,7.97
2018-01-05T11:09:10.947Z,11.37
2018-01-05T11:11:40.852Z,6.10
2018-01-05T11:14:10.740Z,8.70
2018-01-05T11:16:40.641Z,8.17
2018-01-05T11:19:12.024Z,5.20
2018-01-05T11:21:41.902Z,7.23
2018-01-05T11:24:11.814Z,10.27
2018-01-05T11:26:41.671Z,7.90
2018-01-05T11:29:11.545Z,10.63
2018-01-05T11:31:41.447Z,7.17
2018-01-05T11:34:11.316Z,10.10
2018-01-05T11:36:41.220Z,6.53
2018-01-05T11:39:11.232Z,7.60
2018-01-05T11:41:41.074Z,6.57
2018-01-05T11:44:11.063Z,6.30
2018-01-05T11:46:40.954Z,6.87
2018-01-05T11:49:10.845Z,11.63
2018-01-05T11:51:40.796Z,10.23
2018-01-05T11:54:10.682Z,8.63
2018-01-05T11:56:40.553Z,8.07
2018-01-05T11:59:10.487Z,6.93
2018-01-05T12:01:40.467Z,8.90
2018-01-05T12:04:10.341Z,5.10
2018-01-05T12:06:40.304Z,10.30
2018-01-05T12:09:10.183Z,9.77
2018-01-05T12:11:40.133Z,5.13
2018-01-05T12:14:10.138Z,8.30
2018-01-05T12:16:40.693Z,5.10
2018-01-05T12:19:10.585Z,6.40
2018-01-05T12:21:40.752Z,4.30
2018-01-05T12:24:10.612Z,7.67
2018-01-05T12:26:40.580Z,6.80
2018-01-05T12:29:10.439Z,6.10
2018-01-05T12:31:40.381Z,5.17
2018-01-05T12:34:10.233Z,6.50
2018-01-05T12:36:40.135Z,4.60
2018-01-05T12:39:10.013Z,14.23
2018-01-05T12:41:39.891Z,6.17
2018-01-05T12:44:09.886Z,8.30
2018-01-05T12:46:39.770Z,9.10
2018-01-05T12:49:09.669Z,8.73
2018-01-05T12:51:39.646Z,8.00
2018-01-05T12:54:09.523Z,10.37
2018-01-05T12:56:39.415Z,10.30
2018-01-05T12:59:10.065Z,6.90
2018-01-05T13:01:40.017Z,6.67
2018-01-05T13:04:09.932Z,6.67
2018-01-05T13:06:39.786Z,10.27
2018-01-05T13:09:09.666Z,11.43
2018-01-05T13:11:39.551Z,11.77
2018-01-05T13:14:09.430Z,12.83
2018-01-05T13:16:39.398Z,14.83
2018-01-05T13:19:09.281Z,10.50
2018-01-05T13:21:39.164Z,10.70
2018-01-05T13:24:09.112Z,11.60
2018-01-05T13:26:39.151Z,10.73
2018-01-05T13:29:09.061Z,8.20
2018-01-05T13:31:38.981Z,13.60
2018-01-05T13:34:08.874Z,14.73
2018-01-05T13:36:38.762Z,10.90
2018-01-05T13:39:08.679Z,8.73
2018-01-05T13:41:38.624Z,8.87
2018-01-05T13:44:08.549Z,5.30
2018-01-05T13:46:38.405Z,10.30
2018-01-05T13:49:08.351Z,6.67
2018-01-05T13:51:38.215Z,10.00
2018-01-05T13:54:08.135Z,12.87
2018-01-05T13:56:38.093Z,12.03
2018-01-05T13:59:08.043Z,9.03
2018-01-05T14:01:37.948Z,10.80
2018-01-05T14:04:07.896Z,6.03
2018-01-05T14:06:37.919Z,8.63
2018-01-05T14:09:07.892Z,7.77
2018-01-05T14:11:37.791Z,9.23
2018-01-05T14:14:07.717Z,14.63
2018-01-05T14:16:37.731Z,8.83
2018-01-05T14:19:07.604Z,12.20
2018-01-05T14:21:37.543Z,13.37
2018-01-05T14:24:07.447Z,5.67
2018-01-05T14:26:37.365Z,8.73
2018-01-05T14:29:07.261Z,11.47
2018-01-05T14:31:37.208Z,9.93
2018-01-05T14:34:07.089Z,6.90
2018-01-05T14:36:37.114Z,7.87
2018-01-05T14:39:07.031Z,8.20
2018-01-05T14:41:36.946Z,15.77
2018-01-05T14:44:06.840Z,11.43
2018-01-05T14:46:36.904Z,13.00
2018-01-05T14:49:06.810Z,12.07
2018-01-05T14:51:36.703Z,11.87
2018-01-05T14:54:06.593Z,8.33
2018-01-05T14:56:36.482Z,13.33
2018-01-05T14:59:06.385Z,11.30
2018-01-05T15:01:36.395Z,13.50
2018-01-05T15:04:06.386Z,12.20
2018-01-05T15:06:36.254Z,8.87
2018-01-05T15:09:06.190Z,9.33
2018-01-05T15:11:36.075Z,11.10
2018-01-05T15:14:05.959Z,8.77
2018-01-05T15:16:35.825Z,10.80
2018-01-05T15:19:05.717Z,6.77
2018-01-05T15:21:35.602Z,14.77
2018-01-05T15:24:05.524Z,7.50
2018-01-05T15:26:35.663Z,9.03
2018-01-05T15:29:05.568Z,13.43
2018-01-05T15:31:35.536Z,14.50
2018-01-05T15:34:05.479Z,12.90
2018-01-05T15:36:35.406Z,7.43
2018-01-05T15:39:05.330Z,10.03
2018-01-05T15:41:35.381Z,6.53
2018-01-05T15:44:05.399Z,17.43
2018-01-05T15:46:35.345Z,9.93
2018-01-05T15:49:05.275Z,10.00
2018-01-05T15:51:35.226Z,10.10
2018-01-05T15:54:05.232Z,11.50
2018-01-05T15:56:35.152Z,14.03
2018-01-05T15:59:05.115Z,12.80
2018-01-05T16:01:35.854Z,9.60
2018-01-05T16:04:05.909Z,11.90
2018-01-05T16:06:36.004Z,9.57
2018-01-05T16:09:06.228Z,12.37
2018-01-05T16:11:36.197Z,11.30
2018-01-05T16:14:06.170Z,7.20
2018-01-05T16:16:36.135Z,9.70
2018-01-05T16:19:05.982Z,9.77
2018-01-05T16:21:35.880Z,8.40
2018-01-05T16:24:05.868Z,12.80
2018-01-05T16:26:35.815Z,12.57
2018-01-05T16:29:08.498Z,9.83
2018-01-05T16:31:39.779Z,20.77
2018-01-05T16:46:59.702Z,8.57
2018-01-05T16:49:29.766Z,12.43
2018-01-05T16:51:59.642Z,7.93
2018-01-05T16:54:29.699Z,12.47
2018-01-05T16:56:59.586Z,9.80
2018-01-05T16:59:29.590Z,19.00
2018-01-05T17:01:59.656Z,6.80
2018-01-05T17:04:29.621Z,14.07
2018-01-05T17:06:59.536Z,12.80
2018-01-05T17:09:29.470Z,9.17
2018-01-05T17:11:59.351Z,14.17
2018-01-05T17:14:29.336Z,9.97
2018-01-05T17:16:59.468Z,10.73
2018-01-05T17:19:29.387Z,16.80
2018-01-05T17:21:59.301Z,14.13
2018-01-05T17:24:29.234Z,17.50
2018-01-05T17:26:59.213Z,14.23
2018-01-05T17:29:29.120Z,19.07
2018-01-05T17:31:59.007Z,14.37
2018-01-05T17:34:28.963Z,28.67
2018-01-05T17:36:59.102Z,13.67
2018-01-05T17:39:29.044Z,11.60
2018-01-05T17:41:58.956Z,12.57
2018-01-05T17:44:28.923Z,18.47
2018-01-05T17:46:58.860Z,14.87
2018-01-05T17:49:28.887Z,16.93
2018-01-05T17:51:58.764Z,19.83
2018-01-05T17:54:28.718Z,14.13
2018-01-05T17:56:58.720Z,15.17
2018-01-05T17:59:28.702Z,23.43
2018-01-05T18:01:58.719Z,15.03
2018-01-05T18:04:28.624Z,22.17
2018-01-05T18:06:58.530Z,14.70
2018-01-05T18:09:28.450Z,16.53
2018-01-05T18:11:58.387Z,20.90
2018-01-05T18:14:28.288Z,12.53
2018-01-05T18:16:58.244Z,13.97
2018-01-05T18:19:28.119Z,18.67
2018-01-05T18:21:58.044Z,30.40
2018-01-05T18:24:27.932Z,16.57
2018-01-05T18:26:57.931Z,14.93
2018-01-05T18:29:27.925Z,19.43
2018-01-05T18:31:57.854Z,20.37
2018-01-05T18:34:27.740Z,16.00
2018-01-05T18:36:57.712Z,22.87
2018-01-05T18:39:27.628Z,18.07
2018-01-05T18:41:57.581Z,17.60
2018-01-05T18:44:27.548Z,13.33
2018-01-05T18:46:57.593Z,18.27
2018-01-05T18:49:27.778Z,14.33
2018-01-05T18:51:57.674Z,19.27
2018-01-05T18:54:27.600Z,19.03
2018-01-05T18:56:57.490Z,23.63
2018-01-05T18:59:27.393Z,19.57
2018-01-05T19:01:57.300Z,20.10
2018-01-05T19:04:27.264Z,17.87
2018-01-05T19:06:57.246Z,26.27
2018-01-05T19:09:27.191Z,18.93
2018-01-05T19:11:57.181Z,17.40
2018-01-05T19:14:27.126Z,20.70
2018-01-05T19:16:57.071Z,18.73
2018-01-05T19:19:27.107Z,21.00
2018-01-05T19:21:57.182Z,27.70
2018-01-05T19:24:27.177Z,19.90
2018-01-05T19:26:57.086Z,16.30
2018-01-05T19:29:27.137Z,15.50
2018-01-05T19:31:57.279Z,33.30
2018-01-05T19:34:27.397Z,39.07
2018-01-05T19:36:57.387Z,29.70
2018-01-05T19:39:27.413Z,28.47
2018-01-05T19:41:57.386Z,32.00
2018-01-05T19:44:27.352Z,21.97
2018-01-05T19:46:57.442Z,26.47
2018-01-05T19:49:27.406Z,22.50
2018-01-05T19:51:57.470Z,17.30
2018-01-05T19:54:27.524Z,18.10
2018-01-05T19:56:57.544Z,21.67
2018-01-05T19:59:27.786Z,23.47
2018-01-05T20:01:57.784Z,24.70
2018-01-05T20:04:27.724Z,21.00
2018-01-05T20:06:57.734Z,20.73
2018-01-05T20:09:27.754Z,29.87
2018-01-05T20:11:57.700Z,26.40
2018-01-05T20:14:27.645Z,20.43
2018-01-05T20:16:58.331Z,15.67
2018-01-05T20:19:28.776Z,19.93
2018-01-05T20:21:58.791Z,23.27
2018-01-05T20:24:29.137Z,17.97
2018-01-05T20:26:59.188Z,19.10
2018-01-05T20:29:29.633Z,21.00
2018-01-05T20:31:59.769Z,25.13
2018-01-05T20:34:29.753Z,19.90
2018-01-05T20:36:59.664Z,21.60
2018-01-05T20:39:29.975Z,23.73
2018-01-05T20:42:00.081Z,20.50
2018-01-05T20:44:30.086Z,20.03
2018-01-05T20:47:00.101Z,17.70
2018-01-05T20:49:30.652Z,18.40
2018-01-05T20:52:00.546Z,20.80
2018-01-05T20:54:30.509Z,21.73
2018-01-05T20:57:00.475Z,27.33
2018-01-05T20:59:30.414Z,25.20
2018-01-05T21:02:00.302Z,18.77
2018-01-05T21:04:30.229Z,24.47
2018-01-05T21:07:00.111Z,21.00
2018-01-05T21:09:30.196Z,21.03
2018-01-05T21:12:00.089Z,23.63
2018-01-05T21:14:30.053Z,21.07
2018-01-05T21:17:00.026Z,25.20
2018-01-05T21:19:30.168Z,26.90
2018-01-05T21:22:00.258Z,35.20
2018-01-05T21:24:30.379Z,18.83
2018-01-05T21:27:00.644Z,21.43
2018-01-05T21:29:30.686Z,20.33
2018-01-05T21:32:00.675Z,25.07
2018-01-05T21:34:30.689Z,27.13
2018-01-05T21:37:01.394Z,26.33
2018-01-05T21:39:31.359Z,22.63
2018-01-05T21:42:01.283Z,23.17
2018-01-05T21:44:31.231Z,28.60
2018-01-05T21:47:01.137Z,23.23
2018-01-05T21:49:31.285Z,29.30
2018-01-05T21:52:01.166Z,26.67
2018-01-05T21:54:31.884Z,23.73
2018-01-05T21:57:01.815Z,26.07
2018-01-05T21:59:31.719Z,28.73
2018-01-05T22:02:01.647Z,31.43
2018-01-05T22:04:31.527Z,37.43
2018-01-05T22:07:01.475Z,24.23
2018-01-05T22:09:31.455Z,27.53
2018-01-05T22:12:01.432Z,28.53
2018-01-05T22:14:31.326Z,25.57
2018-01-05T22:17:01.290Z,25.43
2018-01-05T22:19:31.187Z,28.73
2018-01-05T22:22:01.140Z,22.47
2018-01-05T22:24:31.125Z,24.10
2018-01-05T22:27:01.086Z,26.73
2018-01-05T22:29:31.094Z,29.73
2018-01-05T22:32:01.038Z,27.30
2018-01-05T22:34:30.992Z,30.17
2018-01-05T22:37:00.937Z,33.53
2018-01-05T22:39:30.852Z,30.60
2018-01-05T22:42:00.804Z,35.47
2018-01-05T22:44:30.768Z,29.90
2018-01-05T22:47:00.648Z,24.50
2018-01-05T22:49:30.862Z,24.90
2018-01-05T22:52:00.798Z,32.00
2018-01-05T22:54:30.821Z,35.80
2018-01-05T22:57:00.842Z,30.80
2018-01-05T22:59:31.032Z,29.80
2018-01-05T23:02:00.938Z,24.90
2018-01-05T23:04:30.888Z,31.90
2018-01-05T23:07:00.886Z,33.57
2018-01-05T23:09:30.958Z,29.13
2018-01-05T23:12:00.892Z,29.20
2018-01-05T23:14:30.838Z,29.63
2018-01-05T23:17:00.803Z,31.43
2018-01-05T23:19:30.828Z,31.50
2018-01-05T23:22:00.802Z,26.30
2018-01-05T23:24:30.767Z,24.73
2018-01-05T23:27:00.866Z,27.97
2018-01-05T23:29:31.220Z,35.70
2018-01-05T23:32:01.119Z,30.70
2018-01-05T23:34:31.335Z,29.00
2018-01-05T23:37:01.239Z,23.10
2018-01-05T23:39:31.770Z,28.40
2018-01-05T23:42:01.651Z,30.27
2018-01-05T23:44:31.575Z,26.83
2018-01-05T23:47:01.515Z,26.63
2018-01-05T23:49:32.039Z,37.90
2018-01-05T23:52:02.004Z,31.77
2018-01-05T23:54:32.213Z,26.87
2018-01-05T23:57:02.103Z,30.97
2018-01-05T23:59:32.594Z,24.13
